createdAt,value
2023-01-17T00:02:14.819Z,98450.59
2023-01-17T00:04:59.605Z,98448.31
2023-01-17T00:07:45.604Z,98458.06
2023-01-17T00:10:23.749Z,98459.91
2023-01-17T00:12:55.885Z,98466.69
2023-01-17T00:15:26.133Z,98469.31
2023-01-17T00:17:53.495Z,98469.31
2023-01-17T00:20:43.928Z,98467.78
2023-01-17T00:23:42.758Z,98473.34
2023-01-17T00:26:14.615Z,98480.03
2023-01-17T00:28:42.385Z,98482.31
2023-01-17T00:31:10.648Z,98489.44
2023-01-17T00:33:37.261Z,98491.63
2023-01-17T00:36:05.109Z,98494.56
2023-01-17T00:38:34.196Z,98494.91
2023-01-17T00:41:07.151Z,98501.38
2023-01-17T00:43:52.557Z,98516.34
2023-01-17T00:46:38.371Z,98518.09
2023-01-17T00:49:23.701Z,98526.72
2023-01-17T00:52:08.959Z,98539.09
2023-01-17T00:54:53.675Z,98548.31
2023-01-17T00:57:38.858Z,98558.56
2023-01-17T01:00:24.713Z,98546.19
2023-01-17T01:03:09.601Z,98547.91
2023-01-17T01:05:55.774Z,98545.94
2023-01-17T01:08:46.089Z,98545.59
2023-01-17T01:11:34.138Z,98542.97
2023-01-17T01:14:19.237Z,98539.25
2023-01-17T01:17:04.516Z,98557.75
2023-01-17T01:19:49.197Z,98561.78
2023-01-17T01:22:34.517Z,98563.31
2023-01-17T01:25:19.675Z,98564.06
2023-01-17T01:28:04.362Z,98571.63
2023-01-17T01:30:49.800Z,98582.56
2023-01-17T01:33:20.246Z,98579.31
2023-01-17T01:35:51.922Z,98589.03
2023-01-17T01:38:20.774Z,98598.75
2023-01-17T01:40:50.311Z,98588.91
2023-01-17T01:43:20.357Z,98590.63
2023-01-17T01:45:57.514Z,98593.75
2023-01-17T01:48:42.123Z,98597.97
2023-01-17T01:51:13.617Z,98594.00
2023-01-17T01:53:44.556Z,98604.19
2023-01-17T01:56:13.396Z,98609.19
2023-01-17T01:58:41.688Z,98604.09
2023-01-17T02:01:09.203Z,98607.38
2023-01-17T02:06:29.471Z,98624.53
2023-01-17T02:08:59.890Z,98632.56
2023-01-17T02:11:26.955Z,98636.56
2023-01-17T02:13:53.293Z,98638.88
2023-01-17T02:16:36.230Z,98655.06
2023-01-17T02:19:11.280Z,98674.31
2023-01-17T02:22:16.414Z,98685.69
2023-01-17T02:25:04.190Z,98684.94
2023-01-17T02:28:14.102Z,98684.66
2023-01-17T02:30:46.069Z,98681.44
2023-01-17T02:33:31.657Z,98676.19
2023-01-17T02:36:29.048Z,98672.16
2023-01-17T02:39:06.116Z,98673.25
2023-01-17T02:41:44.617Z,98671.09
2023-01-17T02:44:15.407Z,98675.53
2023-01-17T02:46:46.866Z,98677.28
2023-01-17T02:49:15.725Z,98676.19
2023-01-17T02:52:22.056Z,98680.03
2023-01-17T02:55:11.315Z,98682.97
2023-01-17T02:57:40.340Z,98691.13
2023-01-17T03:00:25.033Z,98685.13
2023-01-17T03:03:27.158Z,98690.38
2023-01-17T03:06:11.502Z,98697.31
2023-01-17T03:08:46.128Z,98691.00
2023-01-17T03:11:13.551Z,98697.78
2023-01-17T03:13:41.112Z,98695.34
2023-01-17T03:16:18.441Z,98692.09
2023-01-17T03:18:45.354Z,98709.66
2023-01-17T03:21:11.791Z,98704.91
2023-01-17T03:23:38.135Z,98709.66
2023-01-17T03:26:04.622Z,98711.84
2023-01-17T03:28:30.983Z,98714.91
2023-01-17T03:30:57.379Z,98710.16
2023-01-17T03:33:24.657Z,98710.91
2023-01-17T03:35:51.014Z,98723.69
2023-01-17T03:38:17.381Z,98720.75
2023-01-17T03:40:43.682Z,98722.16
2023-01-17T03:43:10.061Z,98719.84
2023-01-17T03:45:36.604Z,98721.53
2023-01-17T03:48:03.200Z,98729.22
2023-01-17T03:50:29.517Z,98736.47
2023-01-17T03:52:55.855Z,98736.94
2023-01-17T03:55:22.264Z,98735.88
2023-01-17T03:57:48.588Z,98750.47
2023-01-17T04:00:15.207Z,98738.63
2023-01-17T04:02:41.615Z,98740.28
2023-01-17T04:05:08.548Z,98743.84
2023-01-17T04:07:34.912Z,98746.63
2023-01-17T04:10:01.221Z,98742.28
2023-01-17T04:12:27.569Z,98752.31
2023-01-17T04:14:53.917Z,98760.75
2023-01-17T04:17:20.512Z,98760.56
2023-01-17T04:19:47.262Z,98765.53
2023-01-17T04:22:13.633Z,98772.28
2023-01-17T04:24:39.982Z,98776.44
2023-01-17T04:27:06.285Z,98771.38
2023-01-17T04:29:32.768Z,98764.75
2023-01-17T04:31:59.111Z,98756.31
2023-01-17T04:34:26.346Z,98757.84
2023-01-17T04:36:52.763Z,98751.84
2023-01-17T04:39:19.103Z,98752.13
2023-01-17T04:41:45.400Z,98746.00
2023-01-17T04:44:11.743Z,98744.75
2023-01-17T04:46:38.052Z,98741.66
2023-01-17T04:49:04.447Z,98741.97
2023-01-17T04:51:30.802Z,98749.06
2023-01-17T04:53:57.125Z,98751.19
2023-01-17T04:56:23.452Z,98739.97
2023-01-17T04:58:49.777Z,98750.41
2023-01-17T05:01:16.124Z,98751.50
2023-01-17T05:03:42.520Z,98753.03
2023-01-17T05:06:08.913Z,98758.28
2023-01-17T05:08:35.289Z,98754.88
2023-01-17T05:11:01.624Z,98765.34
2023-01-17T05:13:28.188Z,98763.03
2023-01-17T05:15:56.442Z,98763.63
2023-01-17T05:18:22.827Z,98764.25
2023-01-17T05:20:49.253Z,98761.94
2023-01-17T05:23:15.620Z,98775.13
2023-01-17T05:25:44.061Z,98773.44
2023-01-17T05:28:12.275Z,98775.91
2023-01-17T05:30:38.721Z,98776.19
2023-01-17T05:33:05.086Z,98775.72
2023-01-17T05:35:35.428Z,98779.72
2023-01-17T05:38:02.259Z,98773.22
2023-01-17T05:40:30.749Z,98780.31
2023-01-17T05:42:58.588Z,98775.06
2023-01-17T05:45:27.627Z,98779.06
2023-01-17T05:47:55.510Z,98785.66
2023-01-17T05:50:27.997Z,98784.44
2023-01-17T05:52:57.773Z,98795.47
2023-01-17T05:55:25.413Z,98797.94
2023-01-17T05:57:51.920Z,98803.16
2023-01-17T06:00:19.097Z,98812.38
2023-01-17T06:02:46.707Z,98805.59
2023-01-17T06:05:14.395Z,98797.28
2023-01-17T06:07:44.089Z,98799.59
2023-01-17T06:10:10.882Z,98810.25
2023-01-17T06:12:37.500Z,98812.25
2023-01-17T06:15:04.140Z,98826.25
2023-01-17T06:17:30.450Z,98822.91
2023-01-17T06:19:56.792Z,98827.72
2023-01-17T06:22:23.184Z,98833.72
2023-01-17T06:24:49.487Z,98842.97
2023-01-17T06:27:15.988Z,98838.69
2023-01-17T06:29:42.316Z,98837.50
2023-01-17T06:32:08.805Z,98852.25
2023-01-17T06:34:35.139Z,98846.75
2023-01-17T06:37:01.451Z,98823.03
2023-01-17T06:39:27.787Z,98821.78
2023-01-17T06:41:54.628Z,98823.66
2023-01-17T06:44:20.951Z,98821.31
2023-01-17T06:46:48.025Z,98815.94
2023-01-17T06:49:14.725Z,98820.66
2023-01-17T06:51:43.518Z,98819.75
2023-01-17T06:54:10.711Z,98828.19
2023-01-17T06:56:37.474Z,98826.97
2023-01-17T06:59:04.702Z,98833.09
2023-01-17T07:01:33.983Z,98836.59
2023-01-17T07:04:00.801Z,98831.94
2023-01-17T07:06:28.744Z,98837.78
2023-01-17T07:08:56.391Z,98844.69
2023-01-17T07:11:23.740Z,98840.53
2023-01-17T07:13:50.105Z,98844.34
2023-01-17T07:16:16.734Z,98841.22
2023-01-17T07:18:43.080Z,98833.25
2023-01-17T07:21:14.292Z,98832.47
2023-01-17T07:23:41.427Z,98843.03
2023-01-17T07:26:07.985Z,98844.69
2023-01-17T07:28:34.418Z,98842.84
2023-01-17T07:31:06.211Z,98840.53
2023-01-17T07:33:32.608Z,98841.13
2023-01-17T07:36:02.623Z,98849.28
2023-01-17T07:38:28.990Z,98845.59
2023-01-17T07:40:59.847Z,98842.81
2023-01-17T07:43:26.312Z,98835.56
2023-01-17T07:45:52.746Z,98845.22
2023-01-17T07:48:20.892Z,98844.47
2023-01-17T07:50:55.350Z,98856.75
2023-01-17T07:53:26.665Z,98856.44
2023-01-17T07:55:53.601Z,98856.16
2023-01-17T07:58:20.516Z,98855.38
2023-01-17T08:00:47.262Z,98855.38
2023-01-17T08:03:17.388Z,98855.88
2023-01-17T08:05:55.251Z,98851.56
2023-01-17T08:08:24.697Z,98854.56
2023-01-17T08:10:56.837Z,98855.50
2023-01-17T08:13:25.571Z,98856.31
2023-01-17T08:15:58.922Z,98854.56
2023-01-17T08:18:27.339Z,98858.34
2023-01-17T08:20:54.176Z,98854.97
2023-01-17T08:23:20.993Z,98858.19
2023-01-17T08:25:55.438Z,98868.00
2023-01-17T08:28:21.873Z,98868.78
2023-01-17T08:30:48.319Z,98866.03
2023-01-17T08:33:15.732Z,98865.88
2023-01-17T08:35:52.320Z,98873.72
2023-01-17T08:38:19.065Z,98867.72
2023-01-17T08:40:45.417Z,98871.41
2023-01-17T08:43:11.785Z,98870.59
2023-01-17T08:45:38.326Z,98877.78
2023-01-17T08:48:04.740Z,98876.94
2023-01-17T08:50:31.094Z,98876.53
2023-01-17T08:53:00.951Z,98875.47
2023-01-17T08:55:27.727Z,98882.38
2023-01-17T08:57:54.139Z,98890.22
2023-01-17T09:00:20.903Z,98886.81
2023-01-17T09:02:47.273Z,98891.75
2023-01-17T09:05:13.750Z,98889.44
2023-01-17T09:07:40.090Z,98894.06
2023-01-17T09:10:06.574Z,98896.84
2023-01-17T09:12:33.333Z,98891.00
2023-01-17T09:15:00.589Z,98895.63
2023-01-17T09:17:26.905Z,98896.53
2023-01-17T09:19:53.272Z,98901.94
2023-01-17T09:22:19.703Z,98901.19
2023-01-17T09:24:46.308Z,98912.72
2023-01-17T09:27:12.682Z,98909.78
2023-01-17T09:29:38.999Z,98902.91
2023-01-17T09:32:05.505Z,98901.66
2023-01-17T09:34:31.950Z,98908.44
2023-01-17T09:36:58.264Z,98910.47
2023-01-17T09:39:24.659Z,98916.81
2023-01-17T09:42:18.588Z,98910.53
2023-01-17T09:44:52.228Z,98920.56
2023-01-17T09:47:25.300Z,98915.69
2023-01-17T09:49:53.483Z,98925.56
2023-01-17T09:52:23.244Z,98928.94
2023-01-17T09:54:50.950Z,98933.41
2023-01-17T09:57:26.204Z,98938.66
2023-01-17T10:00:04.055Z,98936.03
2023-01-17T10:02:48.561Z,98946.84
2023-01-17T10:05:45.502Z,98949.75
2023-01-17T10:08:28.689Z,98948.22
2023-01-17T10:11:29.244Z,98938.78
2023-01-17T10:14:05.803Z,98938.50
2023-01-17T10:16:55.543Z,98943.13
2023-01-17T10:19:44.772Z,98932.63
2023-01-17T10:22:42.108Z,98938.97
2023-01-17T10:25:27.251Z,98935.09
2023-01-17T10:27:58.902Z,98926.28
2023-01-17T10:30:49.431Z,98936.03
2023-01-17T10:33:28.354Z,98929.69
2023-01-17T10:36:03.703Z,98937.69
2023-01-17T10:38:41.996Z,98934.00
2023-01-17T10:41:34.600Z,98936.03
2023-01-17T10:44:25.883Z,98941.59
2023-01-17T10:47:00.812Z,98937.88
2023-01-17T10:49:28.452Z,98940.94
2023-01-17T10:52:07.768Z,98942.50
2023-01-17T10:54:50.870Z,98943.25
2023-01-17T10:57:26.091Z,98948.19
2023-01-17T10:59:53.724Z,98947.09
2023-01-17T11:02:27.318Z,98939.81
2023-01-17T11:04:55.613Z,98944.91
2023-01-17T11:07:24.799Z,98949.56
2023-01-17T11:09:56.365Z,98947.84
2023-01-17T11:12:44.835Z,98949.72
2023-01-17T11:15:11.223Z,98947.25
2023-01-17T11:17:41.392Z,98953.09
2023-01-17T11:20:33.820Z,98953.56
2023-01-17T11:23:15.437Z,98949.84
2023-01-17T11:25:55.430Z,98944.16
2023-01-17T11:28:30.320Z,98939.50
2023-01-17T11:31:07.787Z,98943.09
2023-01-17T11:33:49.122Z,98938.78
2023-01-17T11:36:27.485Z,98929.81
2023-01-17T11:38:56.405Z,98935.81
2023-01-17T11:41:24.547Z,98927.31
2023-01-17T11:43:56.616Z,98933.03
2023-01-17T11:46:23.935Z,98931.94
2023-01-17T11:48:59.563Z,98928.66
2023-01-17T11:51:34.688Z,98928.47
2023-01-17T11:54:12.226Z,98929.69
2023-01-17T11:56:40.534Z,98925.22
2023-01-17T11:59:23.315Z,98926.56
2023-01-17T12:02:39.607Z,98930.84
2023-01-17T12:05:30.235Z,98929.38
2023-01-17T12:08:18.384Z,98925.81
2023-01-17T12:10:53.353Z,98925.47
2023-01-17T12:14:06.277Z,98925.97
2023-01-17T12:16:59.058Z,98918.50
2023-01-17T12:19:54.089Z,98913.53
2023-01-17T12:22:39.029Z,98911.91
2023-01-17T12:25:29.075Z,98909.72
2023-01-17T12:28:13.197Z,98911.56
2023-01-17T12:31:00.941Z,98906.59
2023-01-17T12:33:43.588Z,98912.09
2023-01-17T12:36:35.786Z,98900.81
2023-01-17T12:39:11.740Z,98903.97
2023-01-17T12:41:55.533Z,98900.47
2023-01-17T12:44:47.290Z,98893.50
2023-01-17T12:47:15.784Z,98890.00
2023-01-17T12:49:49.222Z,98893.88
2023-01-17T12:52:22.806Z,98892.56
2023-01-17T12:54:56.184Z,98899.94
2023-01-17T12:57:32.001Z,98891.84
2023-01-17T13:00:04.698Z,98893.25
2023-01-17T13:02:35.956Z,98893.38
2023-01-17T13:05:15.213Z,98896.78
2023-01-17T13:07:56.356Z,98903.69
2023-01-17T13:10:30.995Z,98902.03
2023-01-17T13:13:03.134Z,98888.13
2023-01-17T13:15:37.482Z,98899.63
2023-01-17T13:18:13.586Z,98891.88
2023-01-17T13:21:04.850Z,98897.78
2023-01-17T13:23:56.256Z,98893.94
2023-01-17T13:26:32.152Z,98897.34
2023-01-17T13:29:20.382Z,98903.25
2023-01-17T13:31:56.625Z,98902.81
2023-01-17T13:34:49.755Z,98910.06
2023-01-17T13:37:49.004Z,98904.47
2023-01-17T13:40:44.063Z,98906.31
2023-01-17T13:43:19.337Z,98902.16
2023-01-17T13:46:11.851Z,98901.06
2023-01-17T13:48:40.575Z,98905.22
2023-01-17T13:51:08.647Z,98900.41
2023-01-17T13:53:34.935Z,98897.13
2023-01-17T13:56:12.071Z,98910.41
2023-01-17T13:58:49.853Z,98912.38
2023-01-17T14:01:45.033Z,98925.22
2023-01-17T14:04:12.312Z,98925.34
2023-01-17T14:06:44.493Z,98927.84
2023-01-17T14:09:16.377Z,98924.78
2023-01-17T14:11:54.545Z,98926.78
2023-01-17T14:14:39.487Z,98926.50
2023-01-17T14:17:22.823Z,98923.00
2023-01-17T14:19:54.481Z,98922.56
2023-01-17T14:22:20.829Z,98938.34
2023-01-17T14:25:09.704Z,98934.31
2023-01-17T14:27:42.098Z,98938.91
2023-01-17T14:30:18.068Z,98938.91
2023-01-17T14:33:15.734Z,98930.00
2023-01-17T14:35:52.442Z,98929.78
2023-01-17T14:38:23.029Z,98925.81
2023-01-17T14:40:57.229Z,98935.22
2023-01-17T14:43:25.824Z,98929.50
2023-01-17T14:46:22.522Z,98932.22
2023-01-17T14:48:49.879Z,98926.19
2023-01-17T14:51:22.720Z,98929.03
2023-01-17T14:53:55.091Z,98934.66
2023-01-17T14:56:21.720Z,98931.47
2023-01-17T14:58:48.149Z,98930.44
2023-01-17T15:01:17.844Z,98933.25
2023-01-17T15:03:53.645Z,98938.25
2023-01-17T15:06:23.242Z,98947.41
2023-01-17T15:08:53.845Z,98943.75
2023-01-17T15:11:25.434Z,98942.72
2023-01-17T15:13:54.984Z,98950.50
2023-01-17T15:16:27.432Z,98943.00
2023-01-17T15:18:55.570Z,98947.34
2023-01-17T15:21:26.145Z,98949.28
2023-01-17T15:23:58.772Z,98961.97
2023-01-17T15:26:45.009Z,98960.44
2023-01-17T15:29:24.763Z,98964.00
2023-01-17T15:31:54.113Z,98964.00
2023-01-17T15:34:51.739Z,98966.19
2023-01-17T15:37:28.755Z,98965.91
2023-01-17T15:40:11.336Z,98965.47
2023-01-17T15:42:42.112Z,98968.41
2023-01-17T15:45:16.032Z,98972.09
2023-01-17T15:47:42.721Z,98975.81
2023-01-17T15:50:21.292Z,98968.72
2023-01-17T15:52:49.550Z,98973.34
2023-01-17T15:55:22.772Z,98974.91
2023-01-17T15:57:49.245Z,98970.09
2023-01-17T16:00:21.729Z,98970.56
2023-01-17T16:02:56.111Z,98968.56
2023-01-17T16:05:27.389Z,98974.72
2023-01-17T16:08:16.133Z,98976.41
2023-01-17T16:10:43.676Z,98975.47
2023-01-17T16:13:12.956Z,98971.00
2023-01-17T16:15:42.154Z,98972.06
2023-01-17T16:18:24.434Z,98975.91
2023-01-17T16:21:24.552Z,98974.19
2023-01-17T16:23:51.506Z,98974.63
2023-01-17T16:26:18.047Z,98979.38
2023-01-17T16:28:45.665Z,98979.50
2023-01-17T16:31:12.113Z,98982.06
2023-01-17T16:33:39.247Z,98986.78
2023-01-17T16:36:06.077Z,98989.38
2023-01-17T16:38:32.411Z,98994.72
2023-01-17T16:40:58.748Z,98988.53
2023-01-17T16:43:25.109Z,98989.16
2023-01-17T16:45:53.873Z,98995.88
2023-01-17T16:48:21.249Z,98986.91
2023-01-17T16:50:53.145Z,98994.88
2023-01-17T16:53:24.320Z,98993.16
2023-01-17T16:55:53.942Z,98997.72
2023-01-17T16:58:20.462Z,99000.03
2023-01-17T17:00:47.310Z,99002.19
2023-01-17T17:03:20.050Z,99003.25
2023-01-17T17:05:58.592Z,99007.06
2023-01-17T17:08:25.084Z,99012.50
2023-01-17T17:10:51.622Z,99015.34
2023-01-17T17:13:18.013Z,99019.13
2023-01-17T17:15:44.790Z,99018.94
2023-01-17T17:18:16.780Z,99018.00
2023-01-17T17:20:44.062Z,99020.63
2023-01-17T17:23:12.319Z,99033.69
2023-01-17T17:25:38.988Z,99028.94
2023-01-17T17:28:06.065Z,99027.38
2023-01-17T17:30:33.221Z,99039.69
2023-01-17T17:32:59.624Z,99039.47
2023-01-17T17:35:26.698Z,99045.59
2023-01-17T17:37:53.389Z,99049.56
2023-01-17T17:40:20.005Z,99050.75
2023-01-17T17:42:46.328Z,99053.44
2023-01-17T17:45:12.711Z,99048.63
2023-01-17T17:47:39.029Z,99052.97
2023-01-17T17:50:05.744Z,99055.88
2023-01-17T17:52:32.429Z,99067.41
2023-01-17T17:54:58.773Z,99073.69
2023-01-17T17:57:25.093Z,99073.38
2023-01-17T17:59:51.513Z,99086.75
2023-01-17T18:02:17.816Z,99076.88
2023-01-17T18:04:44.206Z,99082.19
2023-01-17T18:07:10.555Z,99078.69
2023-01-17T18:09:36.936Z,99084.00
2023-01-17T18:12:03.442Z,99085.34
2023-01-17T18:14:29.992Z,99099.19
2023-01-17T18:16:57.139Z,99101.00
2023-01-17T18:19:25.461Z,99100.25
2023-01-17T18:21:52.580Z,99105.94
2023-01-17T18:24:21.880Z,99104.09
2023-01-17T18:26:50.933Z,99110.69
2023-01-17T18:29:18.320Z,99118.50
2023-01-17T18:31:46.512Z,99121.13
2023-01-17T18:34:15.711Z,99127.41
2023-01-17T18:36:43.225Z,99132.63
2023-01-17T18:39:18.111Z,99140.47
2023-01-17T18:41:45.387Z,99138.16
2023-01-17T18:44:12.316Z,99142.56
2023-01-17T18:46:40.141Z,99151.47
2023-01-17T18:49:06.594Z,99153.00
2023-01-17T18:51:34.482Z,99150.41
2023-01-17T18:54:04.903Z,99146.25
2023-01-17T18:56:36.431Z,99147.22
2023-01-17T18:59:05.852Z,99148.00
2023-01-17T19:01:35.652Z,99145.88
2023-01-17T19:04:04.288Z,99150.63
2023-01-17T19:06:39.131Z,99145.19
2023-01-17T19:09:08.123Z,99145.00
2023-01-17T19:11:36.123Z,99154.16
2023-01-17T19:14:02.888Z,99151.06
2023-01-17T19:16:32.575Z,99155.28
2023-01-17T19:19:04.054Z,99152.22
2023-01-17T19:21:31.001Z,99152.97
2023-01-17T19:23:58.110Z,99154.91
2023-01-17T19:26:26.955Z,99154.69
2023-01-17T19:28:55.801Z,99165.88
2023-01-17T19:31:24.901Z,99166.59
2023-01-17T19:33:53.738Z,99165.03
2023-01-17T19:36:25.739Z,99172.31
2023-01-17T19:39:03.581Z,99168.72
2023-01-17T19:41:31.040Z,99172.94
2023-01-17T19:44:05.792Z,99166.00
2023-01-17T19:46:32.829Z,99176.22
2023-01-17T19:48:59.679Z,99172.81
2023-01-17T19:51:26.811Z,99180.66
2023-01-17T19:53:56.488Z,99184.81
2023-01-17T19:56:25.074Z,99187.91
2023-01-17T19:58:52.130Z,99183.66
2023-01-17T20:01:21.687Z,99182.91
2023-01-17T20:03:51.024Z,99180.50
2023-01-17T20:06:20.281Z,99175.78
2023-01-17T20:08:46.664Z,99178.88
2023-01-17T20:11:15.520Z,99188.25
2023-01-17T20:13:42.235Z,99188.25
2023-01-17T20:16:11.079Z,99184.06
2023-01-17T20:18:37.867Z,99185.66
2023-01-17T20:21:06.456Z,99179.38
2023-01-17T20:23:38.619Z,99185.38
2023-01-17T20:26:05.795Z,99175.22
2023-01-17T20:28:33.768Z,99187.19
2023-01-17T20:31:06.078Z,99184.84
2023-01-17T20:33:33.188Z,99196.09
2023-01-17T20:36:10.677Z,99192.50
2023-01-17T20:38:44.338Z,99195.41
2023-01-17T20:41:22.051Z,99191.50
2023-01-17T20:43:51.417Z,99193.63
2023-01-17T20:46:19.218Z,99190.03
2023-01-17T20:48:47.526Z,99193.69
2023-01-17T20:51:14.901Z,99194.47
2023-01-17T20:53:43.201Z,99198.41
2023-01-17T20:56:14.180Z,99189.31
2023-01-17T20:58:41.424Z,99189.63
2023-01-17T21:01:10.007Z,99196.09
2023-01-17T21:03:38.398Z,99198.91
2023-01-17T21:06:10.700Z,99193.88
2023-01-17T21:08:39.347Z,99193.69
2023-01-17T21:11:07.529Z,99198.22
2023-01-17T21:13:33.944Z,99206.88
2023-01-17T21:16:00.352Z,99209.56
2023-01-17T21:18:31.544Z,99206.94
2023-01-17T21:21:08.345Z,99208.78
2023-01-17T21:23:35.463Z,99209.56
2023-01-17T21:26:01.913Z,99209.28
2023-01-17T21:28:30.694Z,99213.72
2023-01-17T21:30:57.423Z,99214.28
2023-01-17T21:33:25.506Z,99218.50
2023-01-17T21:35:52.366Z,99215.69
2023-01-17T21:38:19.029Z,99209.97
2023-01-17T21:40:45.824Z,99218.09
2023-01-17T21:43:12.698Z,99217.31
2023-01-17T21:45:40.358Z,99216.53
2023-01-17T21:48:12.044Z,99213.72
2023-01-17T21:50:38.789Z,99212.16
2023-01-17T21:53:05.114Z,99211.38
2023-01-17T21:55:49.872Z,99214.00
2023-01-17T21:58:36.353Z,99211.16
2023-01-17T22:01:15.985Z,99215.66
2023-01-17T22:03:42.936Z,99209.97
2023-01-17T22:06:10.226Z,99211.50
2023-01-17T22:08:37.567Z,99216.16
2023-01-17T22:11:13.461Z,99219.81
2023-01-17T22:13:41.870Z,99226.31
2023-01-17T22:16:10.877Z,99218.50
2023-01-17T22:18:39.291Z,99229.41
2023-01-17T22:21:08.475Z,99232.84
2023-01-17T22:23:36.325Z,99240.19
2023-01-17T22:26:04.623Z,99231.66
2023-01-17T22:28:32.094Z,99236.63
2023-01-17T22:31:20.721Z,99246.06
2023-01-17T22:33:51.871Z,99243.44
2023-01-17T22:36:18.219Z,99237.47
2023-01-17T22:38:44.633Z,99249.72
2023-01-17T22:41:13.553Z,99254.75
2023-01-17T22:43:42.861Z,99248.75
2023-01-17T22:46:12.378Z,99253.38
2023-01-17T22:48:39.680Z,99252.84
2023-01-17T22:51:11.162Z,99253.63
2023-01-17T22:53:42.367Z,99251.78
2023-01-17T22:56:12.416Z,99255.16
2023-01-17T22:58:42.139Z,99251.22
2023-01-17T23:01:13.565Z,99255.41
2023-01-17T23:03:41.445Z,99243.41
2023-01-17T23:06:08.984Z,99241.84
2023-01-17T23:08:37.072Z,99240.78
2023-01-17T23:11:32.496Z,99244.47
2023-01-17T23:13:58.833Z,99239.25
2023-01-17T23:16:43.476Z,99244.16
2023-01-17T23:19:24.819Z,99246.00
2023-01-17T23:22:16.431Z,99252.28
2023-01-17T23:25:07.453Z,99243.69
2023-01-17T23:28:04.982Z,99241.38
2023-01-17T23:30:35.520Z,99247.41
2023-01-17T23:33:07.265Z,99250.06
2023-01-17T23:35:41.319Z,99245.19
2023-01-17T23:38:33.541Z,99245.53
2023-01-17T23:41:21.372Z,99260.16
2023-01-17T23:43:55.037Z,99248.50
2023-01-17T23:46:22.823Z,99249.34
2023-01-17T23:48:49.370Z,99243.88
2023-01-17T23:51:15.768Z,99243.94
2023-01-17T23:53:42.428Z,99250.47
2023-01-17T23:56:23.463Z,99251.53
2023-01-17T23:58:49.874Z,99251.78
